Crane Gaia — 3FXX2 — position and weather

sailwx.info

Track history (hours):
 
Tides and Currents Weather Stations Pressure Air Temp Water Temp Dewpoint Dewpoint Depression Visibility Wind Speed Wind Dir Waves Ship Positions

Crane Gaia

Last reported at 2016-Dec-01 21:22 UTC. Time now 2016-Dec-06 08:11 UTC.
Position N 22°11' E 120°18'.

Length 115 m; draft 5.2 m.

Type: Ship. MMSI: 352461000.

Date/timePositionNaut miles runAvg speedWind from/ knotsBaromVisibWave heightAir tempDewpointWater temp
2016-Dec-01 21:22N 22°11' E 120°18'1113.4
2016-Dec-01 20:33N 22°21' E 120°14'1414.4
2016-Dec-01 19:33N 22°35' E 120°11'6 6.4
2016-Dec-01 18:33N 22°36' E 120°18'0 0.0
2016-Dec-01 02:24N 22°36' E 120°18'4 4.5
2016-Dec-01 01:33N 22°37' E 120°14'6 5.6
2016-Dec-01 00:33N 22°40' E 120°09'9 9.0
2016-Nov-30 23:33N 22°46' E 120°02'  
2016-Nov-24 11:20N 37°52' E 121°30'1013.1
2016-Nov-24 10:33N 37°47' E 121°19'1211.9
2016-Nov-24 09:33N 37°43' E 121°05'1 0.0
2016-Nov-23 03:33N 37°43' E 121°04'6 5.7
2016-Nov-23 02:34N 37°47' E 121°09'4 1.3
2016-Nov-22 23:21N 37°51' E 121°06'0 0.0
2016-Nov-22 22:29N 37°51' E 121°06'0 0.0
2016-Nov-22 20:28N 37°51' E 121°06'  
Track history (hours):
 
Tides and Currents Weather Stations Pressure Air Temp Water Temp Dewpoint Dewpoint Depression Visibility Wind Speed Wind Dir Waves Ship Positions

Crane Gaia

Last reported at 2016-Dec-01 21:22 UTC. Time now 2016-Dec-06 08:11 UTC.
Position N 22°11' E 120°18'.

Length 115 m; draft 5.2 m.

Type: Ship. MMSI: 352461000.

Date/timePositionNaut miles runAvg speedWind from/ knotsBaromVisibWave heightAir tempDewpointWater temp
2016-Dec-01 21:22N 22°11' E 120°18'1113.4
2016-Dec-01 20:33N 22°21' E 120°14'1414.4
2016-Dec-01 19:33N 22°35' E 120°11'6 6.4
2016-Dec-01 18:33N 22°36' E 120°18'0 0.0
2016-Dec-01 02:24N 22°36' E 120°18'4 4.5
2016-Dec-01 01:33N 22°37' E 120°14'6 5.6
2016-Dec-01 00:33N 22°40' E 120°09'9 9.0
2016-Nov-30 23:33N 22°46' E 120°02'  
2016-Nov-24 11:20N 37°52' E 121°30'1013.1
2016-Nov-24 10:33N 37°47' E 121°19'1211.9
2016-Nov-24 09:33N 37°43' E 121°05'1 0.0
2016-Nov-23 03:33N 37°43' E 121°04'6 5.7
2016-Nov-23 02:34N 37°47' E 121°09'4 1.3
2016-Nov-22 23:21N 37°51' E 121°06'0 0.0
2016-Nov-22 22:29N 37°51' E 121°06'0 0.0
2016-Nov-22 20:28N 37°51' E 121°06'  

Dump ship's entire track history